Latest Weather Observations for Laverton

IDV60901

Issued at 8:11 am EDT Sunday 22 October 2017 (issued every 10 minutes, with the page automatically refreshed every 10 minutes)

About weather observations | Map of Melbourne area stations | Latest observations for Melbourne area | Other Formats
Station Details ID: 087031 Name: LAVERTON RAAF Lat: -37.86 Lon: 144.76 Height: 20.1 m
Data from the previous 72 hours. | See also: Recent months at Laverton
Date/Time
EDT
Temp
°C
App
Temp
°C
Dew
Point
°C
Rel
Hum
%
Delta-T
°C
Wind Press
QNH
hPa
Press
MSL
hPa
Rain since
9am
mm
Dir  Spd
km/h
Gust
km/h
Spd
kts
Gust
kts
22/08:00am 11.6 8.2 9.0 84 1.3 WSW 17 22 9 12 1018.7 1018.7 0.2
22/07:30am 11.1 7.2 8.8 86 1.1 WSW 19 24 10 13 1018.5 1018.5 0.2
22/07:00am 10.9 7.3 8.5 85 1.2 W 17 24 9 13 1018.3 1018.3 0.2
22/06:30am 10.9 7.4 8.7 86 1.1 W 17 22 9 12 1017.9 1017.9 0.2
22/06:00am 10.9 7.0 8.7 86 1.1 W 19 28 10 15 1017.9 1017.9 0.2
22/05:30am 10.7 6.9 9.1 90 0.8 W 19 28 10 15 1017.8 1017.8 0.2
22/05:00am 10.6 6.9 9.4 92 0.6 W 19 26 10 14 1018.0 1018.0 0.2
22/04:30am 10.6 6.8 9.0 90 0.8 W 19 26 10 14 1018.3 1018.3 0.2
22/04:00am 10.4 7.2 8.5 88 0.9 WSW 15 22 8 12 1018.5 1018.5 0.2
22/03:30am 10.4 7.5 8.0 85 1.2 W 13 19 7 10 1018.5 1018.5 0.2
22/03:00am 11.0 7.4 8.2 83 1.4 W 17 20 9 11 1019.1 1019.1 0.2
22/02:30am 11.1 6.8 7.8 80 1.6 W 20 26 11 14 1019.4 1019.4 0.2
22/02:00am 11.2 7.8 7.7 79 1.7 W 15 22 8 12 1019.9 1019.9 0.2
22/01:30am 11.2 8.1 7.1 76 2.0 W 13 19 7 10 1020.1 1020.1 0.2
22/01:00am 11.2 7.3 7.1 76 2.0 WSW 17 20 9 11 1020.4 1020.4 0.2
22/12:30am 10.7 7.3 7.8 82 1.4 WSW 15 22 8 12 1020.7 1020.7 0.2
22/12:00am 10.9 6.8 8.0 82 1.4 WSW 19 24 10 13 1020.9 1020.9 0.2
 
Date/Time
EDT
Temp
°C
App
Temp
°C
Dew
Point
°C
Rel
Hum
%
Delta-T
°C
Wind Press
QNH
hPa
Press
MSL
hPa
Rain since
9am
mm
Dir  Spd
km/h
Gust
km/h
Spd
kts
Gust
kts
21/11:30pm 10.7 7.0 8.1 84 1.3 W 17 26 9 14 1021.1 1021.1 0.2
21/11:00pm 10.8 7.8 7.9 82 1.4 W 13 20 7 11 1021.2 1021.2 0.2
21/10:30pm 11.5 7.8 7.8 78 1.8 WSW 17 28 9 15 1021.4 1021.4 0.2
21/10:00pm 12.0 8.0 8.3 78 1.8 WSW 19 26 10 14 1021.6 1021.6 0.2
21/09:30pm 12.1 10.6 10.7 91 0.7 W 9 13 5 7 1021.8 1021.8 0.2
21/09:00pm 12.0 11.1 10.6 91 0.7 WSW 6 9 3 5 1021.9 1021.9 0.2
21/08:30pm 11.8 10.7 10.7 93 0.6 SSW 7 9 4 5 1022.0 1022.0 0.2
21/08:00pm 11.8 9.1 10.4 91 0.7 SSW 15 20 8 11 1022.0 1022.0 0.2
21/07:30pm 12.4 10.6 9.6 83 1.4 S 9 13 5 7 1022.0 1022.0 0.2
21/07:00pm 12.3 9.9 9.9 85 1.2 S 13 17 7 9 1021.9 1021.9 0.2
21/06:30pm 12.5 9.7 10.0 85 1.3 SSW 15 22 8 12 1021.9 1021.9 0.2
21/06:00pm 13.5 10.3 8.4 71 2.5 SE 15 24 8 13 1021.9 1021.9 0.0
21/05:30pm 13.8 10.2 8.2 69 2.8 SSE 17 24 9 13 1022.0 1022.0 0.0
21/05:00pm 14.5 11.4 7.3 62 3.5 SSE 13 19 7 10 1022.1 1022.1 0.0
21/04:30pm 14.9 11.9 7.7 62 3.6 SSW 13 20 7 11 1022.4 1022.4 0.0
21/04:00pm 14.3 11.3 7.6 64 3.3 SSW 13 20 7 11 1022.7 1022.7 0.0
21/03:30pm 14.5 11.0 7.1 61 3.6 SSW 15 20 8 11 1022.9 1022.9 0.0
21/03:00pm 14.8 12.0 6.9 59 3.8 SSW 11 20 6 11 1023.2 1023.2 0.0
21/02:30pm 14.2 10.6 6.8 61 3.6 SSW 15 22 8 12 1023.7 1023.7 0.0
21/02:00pm 14.4 10.7 6.5 59 3.8 SSW 15 20 8 11 1024.0 1024.0 0.0
21/01:30pm 14.0 10.0 6.8 62 3.5 SSW 17 20 9 11 1024.4 1024.4 0.0
21/01:00pm 13.5 9.0 6.8 64 3.2 SW 20 24 11 13 1024.8 1024.8 0.0
21/12:30pm 13.7 9.0 6.1 60 3.6 SSW 20 32 11 17 1025.0 1025.0 0.0
21/12:00pm 14.4 11.0 6.0 57 4.0 SW 13 19 7 10 1025.3 1025.3 0.0
21/11:30am 13.4 8.9 6.3 62 3.4 SW 19 28 10 15 1025.8 1025.8 0.0
21/11:00am 12.9 8.4 6.3 64 3.1 SW 19 26 10 14 1025.9 1025.9 0.0
21/10:30am 12.6 8.0 5.8 63 3.2 SW 19 26 10 14 1026.1 1026.1 0.0
21/10:00am 12.4 7.6 5.6 63 3.2 SW 20 26 11 14 1026.2 1026.2 0.0
21/09:30am 11.8 7.2 5.4 65 3.0 SW 19 28 10 15 1026.2 1026.2 0.0
21/09:00am 11.8 6.6 5.7 66 2.8 WSW 22 30 12 16 1026.2 1026.2 0.0
21/08:30am 11.7 7.0 5.3 65 2.9 SW 19 24 10 13 1026.2 1026.2 0.0
21/08:00am 11.4 7.1 5.1 65 2.9 WSW 17 22 9 12 1026.2 1026.2 0.0
21/07:30am 11.2 7.2 4.9 65 2.9 WSW 15 22 8 12 1026.3 1026.3 0.0
21/07:00am 11.0 6.6 4.7 65 2.8 WSW 17 20 9 11 1026.4 1026.4 0.0
21/06:30am 10.9 7.7 5.0 67 2.7 WSW 11 13 6 7 1026.3 1026.3 0.0
21/06:00am 10.8 6.6 5.6 70 2.4 WSW 17 24 9 13 1026.4 1026.4 0.0
21/05:30am 11.0 7.0 4.7 65 2.8 WSW 15 20 8 11 1026.4 1026.4 0.0
21/05:00am 10.9 7.6 4.8 66 2.7 WSW 11 17 6 9 1026.3 1026.3 0.0
21/04:30am 11.0 6.6 4.7 65 2.8 WSW 17 22 9 12 1026.6 1026.6 0.0
21/04:00am 11.0 7.0 4.7 65 2.8 WSW 15 22 8 12 1026.8 1026.8 0.0
21/03:30am 11.1 7.4 4.6 64 2.9 SW 13 20 7 11 1027.1 1027.1 0.0
21/03:00am 11.1 6.2 4.3 63 3.0 SW 19 24 10 13 1027.2 1027.2 0.0
21/02:30am 11.7 6.9 4.4 61 3.3 SSW 19 28 10 15 1027.4 1027.4 0.0
21/02:00am 11.8 6.8 4.8 62 3.2 SW 20 28 11 15 1027.7 1027.7 0.0
21/01:30am 11.5 8.3 5.2 65 2.9 SW 11 17 6 9 1028.0 1028.0 0.0
21/01:00am 11.9 7.2 5.3 64 3.0 SSW 19 28 10 15 1028.2 1028.2 0.0
21/12:30am 12.0 7.2 4.7 61 3.3 S 19 24 10 13 1028.5 1028.5 0.0
21/12:00am 12.1 7.2 5.0 62 3.2 SSW 20 26 11 14 1028.7 1028.7 0.0
 
Date/Time
EDT
Temp
°C
App
Temp
°C
Dew
Point
°C
Rel
Hum
%
Delta-T
°C
Wind Press
QNH
hPa
Press
MSL
hPa
Rain since
9am
mm
Dir  Spd
km/h
Gust
km/h
Spd
kts
Gust
kts
20/11:30pm 12.2 7.3 5.1 62 3.3 SSW 20 30 11 16 1028.8 1028.8 0.0
20/11:00pm 12.2 7.9 5.1 62 3.2 SSW 17 24 9 13 1029.0 1029.0 0.0
20/10:30pm 12.0 7.2 4.7 61 3.3 SSW 19 28 10 15 1029.2 1029.2 0.0
20/10:00pm 11.9 7.4 4.2 59 3.4 SSW 17 26 9 14 1029.3 1029.3 0.0
20/09:30pm 12.0 6.5 4.0 58 3.6 SSW 22 32 12 17 1029.4 1029.4 0.0
20/09:00pm 12.1 7.1 4.6 60 3.4 SSW 20 28 11 15 1029.3 1029.3 0.0
20/08:30pm 12.0 6.5 4.2 59 3.5 SSW 22 30 12 16 1029.1 1029.1 0.0
20/08:00pm 12.2 6.0 4.2 58 3.6 S 26 35 14 19 1028.8 1028.8 0.0
20/07:30pm 12.8 7.5 5.0 59 3.6 S 22 33 12 18 1028.4 1028.4 0.0
20/07:00pm 13.1 7.5 5.3 59 3.6 S 24 41 13 22 1028.2 1028.2 0.0
20/06:30pm 13.6 7.6 5.5 58 3.8 S 26 39 14 21 1028.3 1028.3 0.0
20/06:00pm 14.3 7.0 4.3 51 4.6 S 32 46 17 25 1028.1 1028.1 0.0
20/05:30pm 14.4 6.8 2.9 46 5.1 S 32 43 17 23 1028.0 1028.0 0.0
20/05:00pm 15.0 8.3 3.8 47 5.1 S 28 39 15 21 1027.8 1027.8 0.0
20/04:30pm 15.1 8.0 3.6 46 5.3 S 30 39 16 21 1027.7 1027.7 0.0
20/04:17pm 15.2 8.5 3.4 45 5.4 S 28 46 15 25 1027.7 1027.7 0.0
20/04:00pm 15.0 7.8 3.2 45 5.3 S 30 44 16 24 1027.7 1027.7 0.0
20/03:50pm 15.2 8.5 3.4 45 5.4 S 28 46 15 25 1027.8 1027.8 0.0
20/03:30pm 15.0 7.7 4.4 49 4.9 SSE 32 44 17 24 1027.7 1027.7 0.0
20/03:00pm 16.0 8.8 5.0 48 5.2 S 32 43 17 23 1027.9 1027.9 0.0
20/02:38pm 15.5 9.4 6.5 55 4.4 SSE 28 46 15 25 1028.1 1028.1 0.0
20/02:30pm 15.6 8.7 6.3 54 4.5 S 32 43 17 23 1028.2 1028.2 0.0
20/02:00pm 15.1 8.7 5.0 51 4.7 SSE 28 43 15 23 1028.1 1028.1 0.0
20/01:30pm 15.9 9.5 5.2 49 5.1 SSE 28 39 15 21 1028.1 1028.1 0.0
20/01:17pm 15.7 9.0 5.6 51 4.8 S 30 50 16 27 1028.1 1028.1 0.0
20/01:00pm 15.6 9.3 5.5 51 4.8 SSE 28 41 15 22 1028.0 1028.0 0.0
20/12:30pm 14.8 8.7 4.8 51 4.7 S 26 35 14 19 1028.0 1028.0 0.0
20/12:00pm 14.4 7.8 6.0 57 4.0 S 30 43 16 23 1028.2 1028.2 0.0
20/11:30am 13.3 8.1 7.3 67 2.9 SSW 24 33 13 18 1028.2 1028.2 0.0
20/11:00am 14.7 9.6 7.5 62 3.5 SSW 24 39 13 21 1028.2 1028.2 0.0
20/10:30am 12.6 5.8 6.9 68 2.7 SSW 32 43 17 23 1028.3 1028.3 0.0
20/10:00am 14.4 9.3 6.0 57 4.0 SSW 22 32 12 17 1027.8 1027.8 0.0
20/09:30am 14.1 9.5 6.5 60 3.7 SSW 20 30 11 16 1027.5 1027.5 0.0
20/09:00am 12.7 8.0 6.1 64 3.1 SW 20 28 11 15 1027.3 1027.3 4.6
20/08:30am 11.5 6.8 6.2 70 2.5 SW 20 28 11 15 1027.1 1027.1 4.6
20/08:00am 11.2 8.2 7.7 79 1.7 W 13 17 7 9 1026.8 1026.8 4.6
20/07:30am 10.1 7.9 7.7 85 1.2 W 9 13 5 7 1026.5 1026.5 4.6
20/07:00am 9.5 6.9 7.9 90 0.8 W 11 15 6 8 1026.2 1026.2 4.6
20/06:30am 9.0 7.0 7.1 88 0.9 W 7 11 4 6 1025.6 1025.6 4.6
20/06:00am 9.5 7.2 7.6 88 0.9 WSW 9 13 5 7 1025.1 1025.1 4.6
20/05:30am 10.0 7.8 7.9 87 1.0 W 9 15 5 8 1024.7 1024.7 4.6
20/05:00am 10.5 7.6 8.3 86 1.1 W 13 19 7 10 1024.3 1024.3 4.6
20/04:30am 10.6 8.2 8.7 88 0.9 W 11 15 6 8 1024.2 1024.2 4.6
20/04:00am 10.5 7.7 8.6 88 0.9 W 13 17 7 9 1024.1 1024.1 4.6
20/03:30am 10.2 7.1 7.3 82 1.4 WSW 13 20 7 11 1024.1 1024.1 4.6
20/03:00am 7.3 4.3 5.9 91 0.6 WNW 11 15 6 8 1023.8 1023.8 4.6
20/02:30am 8.3 5.8 6.6 89 0.8 WNW 9 11 5 6 1023.8 1023.8 4.6
20/02:00am 8.3 5.4 6.3 87 0.9 WNW 11 13 6 7 1024.1 1024.1 4.6
20/01:30am 9.1 6.2 6.5 84 1.2 NW 11 13 6 7 1024.1 1024.1 4.6
20/01:00am 9.3 6.5 7.1 86 1.0 NW 11 13 6 7 1024.1 1024.1 4.6
20/12:30am 9.8 7.4 7.1 83 1.3 NW 9 9 5 5 1024.2 1024.2 4.6
20/12:00am 11.0 8.6 6.9 76 1.9 WNW 9 11 5 6 1024.4 1024.4 4.6
 
Date/Time
EDT
Temp
°C
App
Temp
°C
Dew
Point
°C
Rel
Hum
%
Delta-T
°C
Wind Press
QNH
hPa
Press
MSL
hPa
Rain since
9am
mm
Dir  Spd
km/h
Gust
km/h
Spd
kts
Gust
kts
19/11:30pm 11.8 9.3 6.7 71 2.4 WNW 9 13 5 7 1024.3 1024.3 4.6
19/11:00pm 13.2 10.4 7.0 66 3.0 W 11 17 6 9 1024.2 1024.2 4.6
19/10:30pm 13.7 10.5 7.0 64 3.3 WSW 13 20 7 11 1024.1 1024.1 4.6
19/10:00pm 14.0 10.9 7.1 63 3.3 WSW 13 17 7 9 1024.0 1024.0 4.6
19/09:30pm 14.4 11.2 6.7 60 3.7 WSW 13 17 7 9 1023.6 1023.6 4.6
19/09:00pm 14.8 10.2 6.4 57 4.0 SW 20 32 11 17 1023.1 1023.1 4.6
19/08:30pm 15.6 11.2 7.4 58 4.1 SW 20 32 11 17 1022.5 1022.5 4.6
19/08:00pm 16.1 11.7 7.6 57 4.2 WSW 20 32 11 17 1021.7 1021.7 4.6
19/07:30pm 16.3 11.4 8.5 60 4.0 WSW 24 33 13 18 1020.2 1020.2 4.6
19/07:00pm 16.9 12.7 9.6 62 3.8 SW 22 35 12 19 1020.2 1020.2 4.6
19/06:30pm 17.5 11.1 9.4 59 4.2 SW 33 44 18 24 1018.9 1018.9 4.6
19/06:00pm 18.4 13.7 11.9 66 3.6 WSW 28 43 15 23 1018.2 1018.2 4.6
19/05:38pm 18.4 13.2 13.3 72 2.9 SW 33 54 18 29 1017.7 1017.7 4.6
19/05:30pm 18.6 13.7 13.7 73 2.8 WSW 32 43 17 23 1017.3 1017.3 4.6
19/05:09pm 19.3 14.0 14.1 72 3.0 SW 35 54 19 29 1016.9 1016.9 4.6
19/05:00pm 19.4 13.0 14.2 72 3.0 SW 41 57 22 31 1016.7 1016.7 4.6
19/04:30pm 21.3 16.5 15.6 70 3.4 SW 35 57 19 31 1016.1 1016.1 4.6
19/04:09pm 23.5 19.5 16.3 64 4.4 WSW 32 57 17 31 1015.9 1015.9 4.6
19/04:00pm 24.5 21.8 15.7 58 5.3 WSW 24 35 13 19 1015.8 1015.8 4.6
19/03:30pm 23.3 20.9 16.4 65 4.2 SW 24 33 13 18 1015.7 1015.7 4.6
19/03:00pm 24.2 23.4 17.0 64 4.4 SSW 17 24 9 13 1015.8 1015.8 4.6
19/02:30pm 24.2 24.6 17.2 65 4.3 WNW 11 24 6 13 1015.8 1015.8 4.6
19/02:00pm 24.0 25.3 17.5 67 4.0 NNW 7 11 4 6 1015.5 1015.5 4.6
19/01:30pm 23.7 24.6 18.4 72 3.3 NE 11 15 6 8 1015.7 1015.7 4.6
19/01:00pm 21.5 23.9 19.6 89 1.2 ESE 6 9 3 5 1016.0 1016.0 4.6
19/12:30pm 19.4 21.1 19.4 100 0.0 E 9 15 5 8 1015.9 1015.9 4.6
19/12:00pm 18.3 19.5 18.3 100 0.0 E 9 13 5 7 1016.3 1016.3 4.6
19/11:49am 18.2 19.0 18.2 100 0.0 E 11 19 6 10 1016.3 1016.3 4.6
19/11:30am 17.4 17.9 17.4 100 0.0 ESE 11 17 6 9 1016.1 1016.1 4.4
19/11:03am 17.3 17.3 17.1 99 0.1 E 13 17 7 9 1016.4 1016.4 2.8
19/11:00am 17.4 17.4 17.2 99 0.1 E 13 17 7 9 1016.5 1016.5 2.6
19/10:56am 17.5 17.5 17.2 98 0.2 E 13 19 7 10 1016.4 1016.4 1.8
19/10:48am 17.7 17.3 17.1 96 0.4 ESE 15 22 8 12 1016.6 1016.6 1.2
19/10:30am 19.1 18.6 17.9 93 0.7 SW 17 22 9 12 1016.5 1016.5 1.0
19/10:00am 19.5 19.1 17.1 86 1.5 SW 15 20 8 11 1016.4 1016.4 0.6
19/09:36am 18.6 17.4 17.1 91 0.9 SSW 19 26 10 14 1016.6 1016.6 0.6
19/09:30am 18.5 17.0 16.7 89 1.1 SSW 20 28 11 15 1016.4 1016.4 0.6
19/09:17am 19.1 17.1 15.4 79 2.2 SW 20 30 11 16 1016.1 1016.1 0.2
19/09:00am 23.5 21.7 12.2 49 6.4 N 13 20 7 11 1015.6 1015.6 0.0
19/08:30am 24.5 21.4 12.1 46 7.1 N 20 32 11 17 1015.5 1015.5 0.0

Latest Capital City Observations: Canberra | Sydney | Melbourne | Brisbane | Adelaide | Perth | Hobart | Darwin

Other Formats:

Comma delimited format used in spreadsheet applications
http://www.bom.gov.au/fwo/IDV60901/IDV60901.94865.axf

JavaScript Object Notation format (JSON) in row-major order
http://www.bom.gov.au/fwo/IDV60901/IDV60901.94865.json